createdAt,value
2022-09-13T00:03:45.794Z,20.72
2022-09-13T00:08:38.603Z,20.71
2022-09-13T00:13:29.013Z,20.68
2022-09-13T00:18:22.525Z,20.66
2022-09-13T00:23:16.055Z,20.68
2022-09-13T00:28:08.805Z,20.67
2022-09-13T00:32:59.342Z,20.70
2022-09-13T00:37:55.056Z,20.67
2022-09-13T00:42:48.556Z,20.61
2022-09-13T00:47:43.642Z,20.55
2022-09-13T00:52:37.439Z,20.38
2022-09-13T00:57:35.233Z,20.50
2022-09-13T01:02:26.160Z,20.51
2022-09-13T01:07:20.752Z,20.43
2022-09-13T01:12:22.223Z,20.43
2022-09-13T01:17:15.549Z,20.35
2022-09-13T01:22:40.171Z,20.31
2022-09-13T01:27:44.041Z,20.30
2022-09-13T01:32:58.332Z,20.27
2022-09-13T01:37:56.493Z,20.29
2022-09-13T01:43:10.336Z,20.31
2022-09-13T01:48:11.428Z,20.26
2022-09-13T01:53:07.517Z,20.21
2022-09-13T01:58:06.564Z,20.16
2022-09-13T02:03:08.843Z,20.14
2022-09-13T02:08:07.778Z,20.20
2022-09-13T02:13:00.243Z,20.20
2022-09-13T02:17:56.753Z,20.23
2022-09-13T02:22:51.687Z,20.22
2022-09-13T02:27:51.823Z,20.24
2022-09-13T02:32:47.032Z,20.19
2022-09-13T02:37:41.555Z,20.19
2022-09-13T02:42:39.429Z,20.15
2022-09-13T02:47:42.188Z,20.13
2022-09-13T02:52:42.601Z,20.09
2022-09-13T02:57:41.889Z,20.08
2022-09-13T03:02:37.086Z,20.07
2022-09-13T03:07:40.265Z,20.04
2022-09-13T03:12:51.046Z,20.02
2022-09-13T03:17:58.677Z,19.97
2022-09-13T03:23:17.270Z,19.98
2022-09-13T03:28:20.901Z,19.93
2022-09-13T03:33:24.033Z,19.89
2022-09-13T03:38:20.022Z,19.88
2022-09-13T03:43:17.261Z,19.80
2022-09-13T03:48:11.320Z,19.87
2022-09-13T03:53:11.434Z,19.81
2022-09-13T03:58:01.756Z,19.80
2022-09-13T04:02:55.943Z,19.78
2022-09-13T04:07:46.436Z,19.81
2022-09-13T04:12:41.652Z,19.81
2022-09-13T04:17:33.558Z,19.81
2022-09-13T04:22:23.933Z,19.72
2022-09-13T04:27:14.740Z,19.69
2022-09-13T04:32:09.508Z,19.71
2022-09-13T04:37:05.524Z,19.70
2022-09-13T04:41:57.548Z,19.69
2022-09-13T04:46:50.994Z,19.66
2022-09-13T04:51:44.040Z,19.57
2022-09-13T04:56:34.420Z,19.51
2022-09-13T05:01:28.024Z,19.40
2022-09-13T05:06:24.600Z,19.40
2022-09-13T05:11:17.448Z,19.41
2022-09-13T05:16:10.308Z,19.38
2022-09-13T05:21:02.949Z,19.35
2022-09-13T05:25:57.096Z,19.32
2022-09-13T05:30:58.725Z,19.30
2022-09-13T05:35:49.676Z,19.21
2022-09-13T05:40:40.144Z,19.23
2022-09-13T05:45:33.087Z,19.22
2022-09-13T05:50:56.017Z,19.26
2022-09-13T05:55:42.129Z,19.32
2022-09-13T06:00:34.190Z,19.37
2022-09-13T06:05:31.875Z,19.41
2022-09-13T06:10:24.601Z,19.40
2022-09-13T06:15:15.867Z,19.38
2022-09-13T06:20:07.328Z,19.46
2022-09-13T06:25:00.948Z,19.46
2022-09-13T06:29:52.737Z,19.47
2022-09-13T06:34:43.180Z,19.55
2022-09-13T06:39:34.603Z,19.59
2022-09-13T06:44:27.268Z,19.64
2022-09-13T06:49:17.930Z,19.69
2022-09-13T06:54:07.769Z,19.76
2022-09-13T06:59:00.154Z,19.81
2022-09-13T07:03:54.401Z,19.89
2022-09-13T07:08:45.368Z,20.00
2022-09-13T07:13:36.329Z,20.12
2022-09-13T07:18:26.205Z,20.20
2022-09-13T07:23:18.360Z,20.29
2022-09-13T07:28:08.031Z,20.35
2022-09-13T07:32:57.622Z,20.43
2022-09-13T07:37:49.486Z,20.50
2022-09-13T07:42:41.890Z,20.49
2022-09-13T07:47:31.533Z,20.72
2022-09-13T07:52:21.689Z,20.81
2022-09-13T07:57:13.219Z,20.93
2022-09-13T08:02:05.574Z,20.96
2022-09-13T08:06:55.951Z,21.01
2022-09-13T08:11:47.857Z,21.12
2022-09-13T08:16:39.562Z,21.19
2022-09-13T08:21:36.227Z,21.27
2022-09-13T08:26:26.156Z,21.35
2022-09-13T08:31:20.009Z,21.45
2022-09-13T08:36:09.739Z,21.56
2022-09-13T08:41:08.113Z,21.67
2022-09-13T08:46:04.547Z,21.85
2022-09-13T08:51:02.749Z,22.07
2022-09-13T08:56:06.361Z,22.19
2022-09-13T09:01:03.817Z,22.24
2022-09-13T09:05:54.594Z,22.28
2022-09-13T09:10:48.141Z,22.39
2022-09-13T09:15:45.208Z,22.39
2022-09-13T09:20:39.846Z,22.32
2022-09-13T09:25:30.059Z,22.41
2022-09-13T09:30:20.078Z,22.61
2022-09-13T09:35:21.226Z,22.63
2022-09-13T09:40:17.536Z,22.36
2022-09-13T09:45:18.875Z,22.23
2022-09-13T09:50:18.538Z,22.14
2022-09-13T09:55:22.803Z,22.12
2022-09-13T10:00:15.525Z,22.42
2022-09-13T10:05:07.256Z,22.82
2022-09-13T10:10:04.980Z,22.93
2022-09-13T10:14:59.115Z,22.81
2022-09-13T10:20:01.556Z,22.65
2022-09-13T10:24:51.400Z,22.55
2022-09-13T10:29:50.653Z,22.60
2022-09-13T10:34:40.528Z,22.94
2022-09-13T10:39:33.984Z,23.25
2022-09-13T10:44:31.896Z,23.28
2022-09-13T10:49:48.942Z,23.10
2022-09-13T10:54:38.522Z,22.88
2022-09-13T10:59:30.692Z,22.76
2022-09-13T11:04:39.294Z,22.67
2022-09-13T11:09:36.703Z,22.78
2022-09-13T11:14:42.792Z,22.97
2022-09-13T11:19:56.328Z,23.13
2022-09-13T11:25:01.469Z,23.27
2022-09-13T11:30:11.356Z,23.22
2022-09-13T11:35:20.708Z,23.06
2022-09-13T11:40:34.568Z,23.17
2022-09-13T11:45:28.477Z,23.41
2022-09-13T11:50:43.839Z,23.49
2022-09-13T11:55:41.936Z,23.70
2022-09-13T12:00:37.726Z,23.88
2022-09-13T12:05:31.323Z,24.04
2022-09-13T12:10:25.729Z,24.21
2022-09-13T12:15:24.044Z,24.19
2022-09-13T12:20:23.027Z,24.17
2022-09-13T12:25:24.279Z,24.25
2022-09-13T12:30:22.449Z,24.34
2022-09-13T12:35:22.399Z,24.15
2022-09-13T12:40:39.616Z,23.85
2022-09-13T12:45:46.058Z,23.77
2022-09-13T12:50:48.991Z,23.64
2022-09-13T12:56:04.875Z,23.67
2022-09-13T13:01:11.773Z,23.67
2022-09-13T13:06:12.739Z,23.57
2022-09-13T13:11:05.741Z,23.41
2022-09-13T13:16:09.276Z,23.38
2022-09-13T13:21:34.451Z,23.39
2022-09-13T13:26:49.703Z,23.37
2022-09-13T13:31:44.216Z,23.28
2022-09-13T13:36:45.424Z,23.26
2022-09-13T13:41:43.469Z,23.24
2022-09-13T13:46:35.109Z,23.23
2022-09-13T13:51:28.594Z,23.24
2022-09-13T13:56:24.038Z,23.40
2022-09-13T14:01:19.664Z,23.42
2022-09-13T14:06:17.838Z,23.45
2022-09-13T14:11:25.241Z,23.39
2022-09-13T14:16:31.126Z,23.35
2022-09-13T14:21:28.206Z,23.30
2022-09-13T14:26:20.636Z,23.24
2022-09-13T14:31:10.697Z,23.16
2022-09-13T14:36:03.596Z,23.13
2022-09-13T14:40:55.853Z,23.17
2022-09-13T14:45:51.258Z,23.18
2022-09-13T14:50:44.962Z,23.21
2022-09-13T14:55:40.501Z,23.23
2022-09-13T15:00:32.632Z,23.12
2022-09-13T15:05:27.555Z,23.18
2022-09-13T15:10:28.397Z,23.11
2022-09-13T15:15:36.024Z,22.99
2022-09-13T15:20:30.772Z,22.81
2022-09-13T15:25:22.722Z,22.66
2022-09-13T15:30:23.636Z,22.60
2022-09-13T15:35:20.639Z,22.57
2022-09-13T15:40:24.469Z,22.50
2022-09-13T15:45:14.224Z,22.54
2022-09-13T15:50:03.610Z,22.53
2022-09-13T15:54:53.627Z,22.54
2022-09-13T15:59:45.696Z,22.44
2022-09-13T16:04:35.052Z,22.40
2022-09-13T16:09:25.141Z,22.28
2022-09-13T16:14:14.542Z,22.12
2022-09-13T16:19:06.669Z,22.04
2022-09-13T16:23:56.125Z,21.97
2022-09-13T16:28:45.583Z,21.81
2022-09-13T16:33:34.997Z,21.63
2022-09-13T16:38:31.003Z,21.53
2022-09-13T16:43:20.782Z,21.33
2022-09-13T16:48:11.188Z,21.22
2022-09-13T16:53:00.851Z,21.14
2022-09-13T16:57:53.163Z,21.04
2022-09-13T17:02:42.844Z,20.98
2022-09-13T17:07:32.476Z,20.84
2022-09-13T17:12:21.932Z,20.75
2022-09-13T17:17:14.466Z,20.67
2022-09-13T17:22:08.125Z,20.56
2022-09-13T17:26:58.012Z,20.48
2022-09-13T17:31:47.649Z,20.42
2022-09-13T17:36:41.524Z,20.35
2022-09-13T17:41:32.083Z,20.34
2022-09-13T17:46:24.269Z,20.25
2022-09-13T17:51:14.892Z,20.15
2022-09-13T17:56:07.685Z,20.12
2022-09-13T18:01:02.790Z,20.03
2022-09-13T18:05:57.086Z,19.98
2022-09-13T18:11:10.213Z,19.93
2022-09-13T18:16:05.556Z,19.88
2022-09-13T18:20:55.033Z,19.84
2022-09-13T18:25:44.877Z,19.80
2022-09-13T18:30:34.343Z,19.74
2022-09-13T18:35:26.645Z,19.67
2022-09-13T18:40:17.995Z,19.64
2022-09-13T18:45:09.544Z,19.61
2022-09-13T18:49:59.801Z,19.57
2022-09-13T18:54:53.145Z,19.55
2022-09-13T18:59:44.023Z,19.55
2022-09-13T19:04:37.452Z,19.54
2022-09-13T19:09:28.140Z,19.53
2022-09-13T19:14:21.796Z,19.52
2022-09-13T19:19:11.828Z,19.45
2022-09-13T19:24:08.119Z,19.37
2022-09-13T19:29:04.383Z,19.32
2022-09-13T19:33:57.765Z,19.25
2022-09-13T19:38:47.703Z,19.18
2022-09-13T19:43:38.446Z,19.14
2022-09-13T19:48:44.421Z,19.03
2022-09-13T19:53:56.091Z,18.99
2022-09-13T19:58:47.228Z,18.95
2022-09-13T20:03:36.884Z,18.92
2022-09-13T20:08:27.686Z,18.93
2022-09-13T20:13:20.699Z,18.88
2022-09-13T20:18:16.393Z,18.87
2022-09-13T20:23:08.951Z,18.87
2022-09-13T20:27:58.506Z,18.72
2022-09-13T20:32:51.181Z,18.74
2022-09-13T20:37:41.526Z,18.77
2022-09-13T20:42:31.281Z,18.70
2022-09-13T20:47:20.898Z,18.59
2022-09-13T20:52:14.085Z,18.55
2022-09-13T20:57:04.224Z,18.47
2022-09-13T21:01:55.171Z,18.48
2022-09-13T21:07:05.397Z,18.48
2022-09-13T21:11:57.521Z,18.47
2022-09-13T21:16:47.194Z,18.40
2022-09-13T21:21:37.546Z,18.40
2022-09-13T21:26:28.415Z,18.34
2022-09-13T21:31:22.707Z,18.23
2022-09-13T21:36:12.811Z,18.19
2022-09-13T21:41:03.009Z,18.21
2022-09-13T21:46:01.167Z,18.24
2022-09-13T21:50:53.237Z,18.20
2022-09-13T21:55:42.917Z,18.14
2022-09-13T22:00:32.347Z,18.13
2022-09-13T22:05:24.068Z,18.16
2022-09-13T22:10:16.092Z,18.20
2022-09-13T22:15:05.812Z,18.21
2022-09-13T22:19:55.515Z,18.23
2022-09-13T22:24:46.163Z,18.22
2022-09-13T22:29:38.660Z,18.22
2022-09-13T22:34:31.045Z,18.18
2022-09-13T22:39:20.610Z,18.17
2022-09-13T22:44:10.623Z,18.19
2022-09-13T22:49:03.217Z,18.11
2022-09-13T22:53:55.116Z,18.16
2022-09-13T22:58:45.338Z,18.08
2022-09-13T23:03:36.509Z,18.10
2022-09-13T23:08:28.917Z,18.02
2022-09-13T23:13:18.460Z,17.95
2022-09-13T23:18:09.672Z,18.16
2022-09-13T23:22:59.319Z,18.23
2022-09-13T23:27:51.565Z,18.19
2022-09-13T23:32:41.283Z,18.29
2022-09-13T23:37:31.262Z,18.33
2022-09-13T23:42:21.424Z,18.27
2022-09-13T23:47:14.668Z,18.20
2022-09-13T23:52:04.465Z,18.17
2022-09-13T23:56:54.136Z,18.21
